Packs Harbour, Canada
Current Conditions -  °F | °C
As of 10:00 AM on Friday 24 Oct 2014 (Local Time) from CWCA Reporting Station
Few Clouds Few Clouds  
Wind Chill: 37°   Ceiling: Unl
Heat Index: 41°   Visibility: 15mi
Dew Point: 36°   Wind: 6mph
Humidity: 81%   Direction: 10°N
Pressure: 30.13"   Gusts: NA
Location:  53.87°N, 57°W
Report Text: CWCA 241300Z 01005KT 15SM FEW020 05/02 A3013 RMK SC1 SLP205
Loading
Personal Weather Stations






























Interactive Weather Map
Tropical Storm Tracking
New forecast layout! Learn more

10-Day Weather Forecast

Advertisements
Track Severe Weather on mobile